Search for airport 
image banner adimage banner adimage banner ad
image banner ad

KRDD - Redding Muni

Located in Redding, United States

ICAO - RDD, IATA - RDD

Data provided by Airmate  

General information

Coordinates: N40°30'32" W122°17'36"
Elevation is 505 feet MSL.
Magnetic variation is 14° East
View others Airports in California

Operational data

Special qualification required
Current time UTC:
Current local time:
Weather
METAR: KRDD 211353Z 00000KT 10SM CLR 22/08 A2983 RMK AO2 SLP094 T02170083
TAF: KRDD 211120Z 2112/2212 VRB05KT P6SM SCT250 FM212100 19015G24KT P6SM SCT250 FM220300 VRB05KT P6SM SKC
View NOTAMs / SUP AIP / TFR affecting this airport [VIEW]
Communications frequencies: [VIEW]

Runways:

RWY identifierQFULength (ft)Width (ft)SurfaceLDA (ft)
12140°5067150ASPH5067
30320°5067150ASPH5067
16180°7003150ASPH7003
347003150ASPH7003

Airport contact information

Address: Redding United States

Other aviation service providers

Flight schools

Air Shasta Rotor And Wing

Air Shasta Rotor And Wing
info@airshasta.com+1(530)222-0100

Iasco Flight Training

Iasco Flight Training
info@iascousa.com+1(530)722-9419

Grand Flying Club

Grand Flying Club
info@grandflying.club+1(530)209-5005

Satellite view of KRDD